Time;durP1;ratioP1;P1;durP2;ratioP2;P2;SDS_P1;SDS_P2;PMS_P1;PMS_P2;Temp;Humidity;BMP_temperature;BMP_pressure;BME280_temperature;BME280_humidity;BME280_pressure;Samples;Min_cycle;Max_cycle;Signal;HPM_P1;HPM_P2
2021/07/04 00:02:21;;;;;;;;;15.67;10.67;;;;;;;;5053555;28;45430;-74
2021/07/04 00:04:46;;;;;;;;;9.25;9.00;;;;;;;;5051758;28;45265;-76
2021/07/04 00:07:11;;;;;;;;;11.25;8.75;;;;;;;;5054378;28;45296;-75
2021/07/04 00:09:37;;;;;;;;;14.25;9.50;;;;;;;;5056788;28;48017;-74
2021/07/04 00:12:03;;;;;;;;;9.50;7.75;;;;;;;;5054443;27;45942;-75
2021/07/04 00:14:28;;;;;;;;;12.25;9.75;;;;;;;;5050816;28;45461;-74
2021/07/04 00:16:54;;;;;;;;;8.33;8.33;;;;;;;;5052294;28;45537;-75
2021/07/04 00:19:19;;;;;;;;;9.67;8.33;;;;;;;;5053306;28;45525;-75
2021/07/04 00:21:44;;;;;;;;;12.67;8.67;;;;;;;;5046677;28;45419;-76
2021/07/04 00:24:09;;;;;;;;;12.67;9.00;;;;;;;;5049921;28;50382;-79
2021/07/04 00:26:34;;;;;;;;;7.67;7.67;;;;;;;;5053637;28;45747;-75
2021/07/04 00:29:00;;;;;;;;;13.00;9.67;;;;;;;;5050891;28;45539;-76
2021/07/04 00:31:25;;;;;;;;;11.25;9.25;;;;;;;;5052822;28;45374;-75
2021/07/04 00:33:51;;;;;;;;;12.67;10.00;;;;;;;;5066567;28;45574;-75
2021/07/04 00:36:17;;;;;;;;;13.00;9.00;;;;;;;;5051407;28;46633;-75
2021/07/04 00:38:42;;;;;;;;;11.25;9.00;;;;;;;;5049793;28;45349;-75
2021/07/04 00:41:07;;;;;;;;;8.25;8.25;;;;;;;;5047530;28;45423;-76
2021/07/04 00:43:32;;;;;;;;;10.00;10.00;;;;;;;;5049823;28;47533;-77
2021/07/04 00:45:58;;;;;;;;;9.00;9.00;;;;;;;;5049538;28;45459;-75
2021/07/04 00:48:23;;;;;;;;;7.25;7.25;;;;;;;;5048708;28;45473;-75
2021/07/04 00:50:49;;;;;;;;;12.00;8.00;;;;;;;;5050000;28;45573;-76
2021/07/04 00:53:14;;;;;;;;;10.50;8.50;;;;;;;;5049431;28;45541;-74
2021/07/04 00:55:40;;;;;;;;;8.00;7.00;;;;;;;;5051353;28;45518;-74
2021/07/04 00:58:06;;;;;;;;;7.50;7.50;;;;;;;;5052729;28;45827;-75
2021/07/04 01:00:33;;;;;;;;;11.00;9.50;;;;;;;;5047335;28;45906;-76
2021/07/04 01:02:58;;;;;;;;;8.00;7.75;;;;;;;;5045152;28;45549;-77
2021/07/04 01:05:25;;;;;;;;;10.00;9.75;;;;;;;;5076759;27;45580;-76
2021/07/04 01:07:50;;;;;;;;;9.00;8.25;;;;;;;;5048841;28;45466;-75
2021/07/04 01:10:17;;;;;;;;;10.25;8.50;;;;;;;;5063630;28;45513;-78
2021/07/04 01:12:44;;;;;;;;;8.75;8.75;;;;;;;;5051617;28;45478;-75
2021/07/04 01:15:09;;;;;;;;;11.25;8.25;;;;;;;;5053118;28;45392;-75
2021/07/04 01:17:37;;;;;;;;;9.50;7.00;;;;;;;;5053859;27;45549;-75
2021/07/04 01:20:04;;;;;;;;;8.00;7.25;;;;;;;;5048201;28;45374;-76
2021/07/04 01:22:30;;;;;;;;;10.25;8.00;;;;;;;;5053222;28;45355;-75
2021/07/04 01:24:56;;;;;;;;;7.75;7.00;;;;;;;;5059618;28;45524;-74
2021/07/04 01:27:21;;;;;;;;;8.75;8.25;;;;;;;;5057003;28;47392;-75
2021/07/04 01:29:46;;;;;;;;;10.00;8.00;;;;;;;;5058981;27;45537;-77
2021/07/04 01:32:11;;;;;;;;;10.00;8.25;;;;;;;;5062187;28;45394;-75
2021/07/04 01:34:37;;;;;;;;;7.50;7.50;;;;;;;;5060502;28;45458;-76
2021/07/04 01:37:02;;;;;;;;;6.67;6.33;;;;;;;;5059968;28;45475;-74
2021/07/04 01:39:28;;;;;;;;;8.75;7.00;;;;;;;;5055239;28;45358;-74
2021/07/04 01:41:53;;;;;;;;;8.00;7.00;;;;;;;;5052806;27;45457;-75
2021/07/04 01:44:19;;;;;;;;;10.75;7.75;;;;;;;;5060127;28;45435;-75
2021/07/04 01:46:44;;;;;;;;;10.75;6.00;;;;;;;;5060916;28;46264;-74
2021/07/04 01:49:09;;;;;;;;;5.33;5.33;;;;;;;;5054600;28;45490;-75
2021/07/04 01:51:35;;;;;;;;;6.00;6.00;;;;;;;;5055618;28;45817;-74
2021/07/04 01:54:00;;;;;;;;;8.67;8.67;;;;;;;;5054056;28;45410;-77
2021/07/04 01:56:25;;;;;;;;;8.67;5.33;;;;;;;;5049463;28;46434;-75
2021/07/04 01:58:50;;;;;;;;;5.75;5.75;;;;;;;;5050037;28;45424;-74
2021/07/04 02:01:16;;;;;;;;;7.00;6.00;;;;;;;;5051893;28;45562;-75
2021/07/04 02:03:41;;;;;;;;;6.00;5.00;;;;;;;;5057500;28;45519;-75
2021/07/04 02:06:06;;;;;;;;;7.00;7.00;;;;;;;;5056448;28;45516;-76
2021/07/04 02:08:31;;;;;;;;;7.33;5.33;;;;;;;;5053879;28;45580;-75
2021/07/04 02:10:56;;;;;;;;;5.00;5.00;;;;;;;;5061590;28;45596;-75
2021/07/04 02:13:22;;;;;;;;;6.50;6.50;;;;;;;;5053843;28;45541;-76
2021/07/04 02:15:47;;;;;;;;;7.67;7.00;;;;;;;;5057871;28;45423;-75
2021/07/04 02:18:16;;;;;;;;;5.00;5.00;;;;;;;;5054290;28;45413;-75
2021/07/04 02:20:49;;;;;;;;;10.75;6.00;;;;;;;;5054442;27;45507;-75
2021/07/04 02:23:16;;;;;;;;;5.75;5.75;;;;;;;;5053799;28;45427;-75
2021/07/04 02:25:42;;;;;;;;;8.00;7.00;;;;;;;;5063878;28;47124;-74
2021/07/04 02:28:08;;;;;;;;;9.00;6.00;;;;;;;;5066672;28;45741;-75
2021/07/04 02:30:35;;;;;;;;;5.50;5.50;;;;;;;;5056173;27;45594;-75
2021/07/04 02:33:02;;;;;;;;;5.00;4.75;;;;;;;;5052699;28;45406;-75
2021/07/04 02:35:29;;;;;;;;;6.25;5.25;;;;;;;;5053829;28;45602;-75
2021/07/04 02:37:54;;;;;;;;;6.25;6.25;;;;;;;;5062526;28;45490;-75
2021/07/04 02:40:21;;;;;;;;;7.33;7.00;;;;;;;;5055705;28;45432;-74
2021/07/04 02:42:47;;;;;;;;;6.75;6.00;;;;;;;;5061970;28;45497;-75
2021/07/04 02:45:12;;;;;;;;;7.25;5.75;;;;;;;;5059081;27;45559;-74
2021/07/04 02:47:37;;;;;;;;;7.00;5.50;;;;;;;;5055678;27;45500;-75
2021/07/04 02:50:04;;;;;;;;;5.00;5.00;;;;;;;;5058812;28;45529;-75
2021/07/04 02:52:29;;;;;;;;;8.00;6.50;;;;;;;;5054172;28;45425;-74
2021/07/04 02:54:55;;;;;;;;;7.00;5.00;;;;;;;;5062542;28;47079;-74
2021/07/04 02:57:20;;;;;;;;;7.00;6.00;;;;;;;;5053478;28;48597;-75
2021/07/04 02:59:45;;;;;;;;;8.33;7.00;;;;;;;;5050761;28;45520;-74
2021/07/04 03:02:10;;;;;;;;;9.00;7.00;;;;;;;;5051569;28;45492;-75
2021/07/04 03:04:35;;;;;;;;;7.00;7.00;;;;;;;;5052617;28;45699;-73
2021/07/04 03:07:01;;;;;;;;;8.00;6.67;;;;;;;;5062687;28;45501;-73
2021/07/04 03:09:26;;;;;;;;;6.33;5.00;;;;;;;;5052537;28;45344;-73
2021/07/04 03:11:52;;;;;;;;;6.50;6.50;;;;;;;;5052019;28;45466;-73
2021/07/04 03:14:17;;;;;;;;;8.00;7.00;;;;;;;;5064092;28;46152;-73
2021/07/04 03:16:42;;;;;;;;;4.67;4.67;;;;;;;;5053759;28;45582;-75
2021/07/04 03:19:07;;;;;;;;;5.00;5.00;;;;;;;;5063449;28;45395;-76
2021/07/04 03:21:33;;;;;;;;;8.50;6.00;;;;;;;;5054289;27;45528;-76
2021/07/04 03:23:58;;;;;;;;;6.00;6.00;;;;;;;;5053432;28;47317;-76
2021/07/04 03:26:23;;;;;;;;;7.33;6.00;;;;;;;;5063679;28;45546;-77
2021/07/04 03:28:48;;;;;;;;;7.67;6.00;;;;;;;;5063562;28;45255;-76
2021/07/04 03:31:13;;;;;;;;;4.25;4.25;;;;;;;;5065045;28;45374;-75
2021/07/04 03:33:39;;;;;;;;;6.75;6.00;;;;;;;;5051489;28;46290;-73
2021/07/04 03:36:05;;;;;;;;;8.00;6.00;;;;;;;;5051667;28;45411;-76
2021/07/04 03:38:30;;;;;;;;;6.25;4.50;;;;;;;;5052184;28;45810;-77
2021/07/04 03:40:55;;;;;;;;;5.00;5.00;;;;;;;;5054884;28;45615;-76
2021/07/04 03:43:20;;;;;;;;;4.33;4.33;;;;;;;;5058674;28;46259;-76
2021/07/04 03:45:46;;;;;;;;;6.00;5.00;;;;;;;;5056714;28;45411;-76
2021/07/04 03:48:11;;;;;;;;;4.50;4.00;;;;;;;;5054469;28;45522;-76
2021/07/04 03:50:36;;;;;;;;;4.25;3.50;;;;;;;;5053153;27;45415;-78
2021/07/04 03:53:02;;;;;;;;;2.00;2.00;;;;;;;;5053582;28;47240;-76
2021/07/04 03:55:28;;;;;;;;;4.00;4.00;;;;;;;;5059524;28;45335;-75
2021/07/04 03:57:53;;;;;;;;;5.50;3.00;;;;;;;;5063014;28;45384;-77
2021/07/04 04:00:19;;;;;;;;;4.00;3.00;;;;;;;;5071301;27;45672;-76
2021/07/04 04:02:45;;;;;;;;;1.00;1.00;;;;;;;;5052445;28;45569;-77
2021/07/04 04:05:10;;;;;;;;;4.00;4.00;;;;;;;;5063356;28;45418;-78
2021/07/04 04:07:35;;;;;;;;;3.25;3.25;;;;;;;;5058147;28;45521;-75
2021/07/04 04:10:02;;;;;;;;;3.00;3.00;;;;;;;;5055551;28;45404;-75
2021/07/04 04:12:28;;;;;;;;;4.50;3.00;;;;;;;;5051699;28;45836;-77
2021/07/04 04:14:53;;;;;;;;;3.00;3.00;;;;;;;;5049049;28;45727;-77
2021/07/04 04:17:18;;;;;;;;;4.00;4.00;;;;;;;;5057530;28;45437;-77
2021/07/04 04:19:43;;;;;;;;;3.67;3.00;;;;;;;;5052440;28;45292;-78
2021/07/04 04:22:09;;;;;;;;;3.00;3.00;;;;;;;;5056109;28;47141;-76
2021/07/04 04:24:34;;;;;;;;;4.00;2.25;;;;;;;;5056967;28;45417;-76
2021/07/04 04:26:59;;;;;;;;;2.00;2.00;;;;;;;;5055838;28;45430;-78
2021/07/04 04:29:25;;;;;;;;;3.75;3.00;;;;;;;;5060074;28;45398;-76
2021/07/04 04:31:50;;;;;;;;;3.33;3.00;;;;;;;;5053535;28;46373;-81
2021/07/04 04:34:15;;;;;;;;;5.00;3.00;;;;;;;;5065325;28;45421;-76
2021/07/04 04:36:41;;;;;;;;;3.00;3.00;;;;;;;;5057823;28;45729;-77
2021/07/04 04:39:06;;;;;;;;;3.00;3.00;;;;;;;;5052213;28;45370;-76
2021/07/04 04:41:36;;;;;;;;;1.50;1.50;;;;;;;;5061803;27;45460;-75
2021/07/04 04:44:04;;;;;;;;;4.75;3.75;;;;;;;;5061639;28;45394;-76
2021/07/04 04:46:30;;;;;;;;;2.00;2.00;;;;;;;;5054189;28;45441;-76
2021/07/04 04:48:55;;;;;;;;;3.00;2.00;;;;;;;;5057677;28;45451;-76
2021/07/04 04:51:21;;;;;;;;;5.00;3.00;;;;;;;;5054613;28;46443;-75
2021/07/04 04:53:46;;;;;;;;;3.00;3.00;;;;;;;;5054044;28;45477;-75
2021/07/04 04:56:11;;;;;;;;;3.33;2.33;;;;;;;;5059188;28;45690;-76
2021/07/04 04:58:36;;;;;;;;;4.67;3.00;;;;;;;;5063679;28;45397;-76
2021/07/04 05:01:02;;;;;;;;;3.00;3.00;;;;;;;;5062092;28;45627;-76
2021/07/04 05:03:27;;;;;;;;;4.50;3.00;;;;;;;;5058208;27;45782;-78
2021/07/04 05:05:52;;;;;;;;;4.33;3.00;;;;;;;;5058557;28;45685;-75
2021/07/04 05:08:18;;;;;;;;;3.00;1.67;;;;;;;;5056177;28;46544;-75
2021/07/04 05:10:43;;;;;;;;;3.75;3.00;;;;;;;;5050951;28;45425;-77
2021/07/04 05:13:08;;;;;;;;;4.00;3.00;;;;;;;;5051664;28;45785;-76
2021/07/04 05:15:33;;;;;;;;;3.33;3.33;;;;;;;;5056382;28;45460;-76
2021/07/04 05:18:02;;;;;;;;;4.00;2.00;;;;;;;;5057300;28;48831;-76
2021/07/04 05:20:28;;;;;;;;;5.25;4.00;;;;;;;;5048058;27;46251;-76
2021/07/04 05:22:53;;;;;;;;;3.67;3.00;;;;;;;;5056819;28;45431;-76
2021/07/04 05:25:18;;;;;;;;;3.33;3.33;;;;;;;;5053035;28;45641;-76
2021/07/04 05:27:43;;;;;;;;;3.00;3.00;;;;;;;;5057964;28;45442;-76
2021/07/04 05:30:09;;;;;;;;;3.00;3.00;;;;;;;;5052930;28;47174;-76
2021/07/04 05:32:34;;;;;;;;;3.00;3.00;;;;;;;;5051337;27;45250;-75
2021/07/04 05:34:59;;;;;;;;;2.75;2.75;;;;;;;;5060947;28;45401;-76
2021/07/04 05:37:25;;;;;;;;;5.00;3.67;;;;;;;;5058677;28;45526;-76
2021/07/04 05:39:50;;;;;;;;;3.00;3.00;;;;;;;;5058339;28;46089;-76
2021/07/04 05:42:15;;;;;;;;;5.00;5.00;;;;;;;;5056191;27;45441;-76
2021/07/04 05:44:40;;;;;;;;;2.67;2.67;;;;;;;;5054356;28;45491;-76
2021/07/04 05:47:07;;;;;;;;;4.00;3.75;;;;;;;;5061554;28;45400;-76
2021/07/04 05:49:32;;;;;;;;;4.75;3.75;;;;;;;;5052363;28;45576;-75
2021/07/04 05:51:57;;;;;;;;;5.25;2.00;;;;;;;;5052873;28;45869;-76
2021/07/04 05:54:22;;;;;;;;;2.00;2.00;;;;;;;;5053884;28;45563;-76
2021/07/04 05:56:48;;;;;;;;;2.67;2.67;;;;;;;;5063770;28;45461;-75
2021/07/04 05:59:13;;;;;;;;;2.00;2.00;;;;;;;;5067723;28;46459;-75
2021/07/04 06:01:39;;;;;;;;;2.25;2.25;;;;;;;;5056928;28;46119;-76
2021/07/04 06:04:04;;;;;;;;;5.00;3.00;;;;;;;;5068311;28;45913;-76
2021/07/04 06:06:29;;;;;;;;;2.50;2.50;;;;;;;;5059634;27;45620;-76
2021/07/04 06:08:54;;;;;;;;;4.67;3.00;;;;;;;;5055415;28;45389;-75
2021/07/04 06:11:20;;;;;;;;;2.00;2.00;;;;;;;;5055992;28;45566;-76
2021/07/04 06:13:45;;;;;;;;;3.75;2.00;;;;;;;;5055404;28;45402;-76
2021/07/04 06:16:10;;;;;;;;;1.33;1.33;;;;;;;;5070289;28;45362;-77
2021/07/04 06:18:36;;;;;;;;;2.00;2.00;;;;;;;;5062516;27;48290;-75
2021/07/04 06:21:02;;;;;;;;;2.00;2.00;;;;;;;;5077923;27;45513;-76
2021/07/04 06:23:27;;;;;;;;;2.00;2.00;;;;;;;;5066931;27;45383;-77
2021/07/04 06:25:52;;;;;;;;;1.75;1.75;;;;;;;;5066285;28;45633;-76
2021/07/04 06:28:17;;;;;;;;;2.25;2.00;;;;;;;;5070575;28;46175;-77
2021/07/04 06:30:43;;;;;;;;;2.00;2.00;;;;;;;;5061764;28;45522;-75
2021/07/04 06:33:08;;;;;;;;;2.67;2.67;;;;;;;;5061920;28;45545;-75
2021/07/04 06:35:33;;;;;;;;;2.00;2.00;;;;;;;;5081731;27;45518;-76
2021/07/04 06:37:58;;;;;;;;;3.25;2.00;;;;;;;;5066368;28;46089;-75
2021/07/04 06:40:24;;;;;;;;;2.33;1.00;;;;;;;;5067906;28;45417;-76
2021/07/04 06:42:49;;;;;;;;;3.00;2.00;;;;;;;;5064234;28;45431;-76
2021/07/04 06:45:15;;;;;;;;;2.75;2.00;;;;;;;;5064441;27;45337;-77
2021/07/04 06:47:41;;;;;;;;;3.75;2.50;;;;;;;;5064537;28;46668;-76
2021/07/04 06:50:07;;;;;;;;;2.00;2.00;;;;;;;;5057214;28;45833;-75
2021/07/04 06:52:32;;;;;;;;;2.50;2.50;;;;;;;;5066220;28;45399;-76
2021/07/04 06:54:57;;;;;;;;;2.00;2.00;;;;;;;;5066418;28;45510;-77
2021/07/04 06:57:26;;;;;;;;;2.50;2.50;;;;;;;;5061578;27;45527;-76
2021/07/04 06:59:52;;;;;;;;;2.25;1.25;;;;;;;;5057052;28;45494;-78
2021/07/04 07:02:17;;;;;;;;;2.67;2.00;;;;;;;;5067745;28;45453;-75
2021/07/04 07:04:42;;;;;;;;;2.00;2.00;;;;;;;;5067950;28;45429;-77
2021/07/04 07:07:07;;;;;;;;;2.67;2.00;;;;;;;;5061526;28;45465;-76
2021/07/04 07:09:32;;;;;;;;;4.00;2.00;;;;;;;;5051678;28;45510;-76
2021/07/04 07:11:58;;;;;;;;;3.00;3.00;;;;;;;;5053135;28;45556;-76
2021/07/04 07:14:23;;;;;;;;;2.00;2.00;;;;;;;;5036888;28;45656;-76
2021/07/04 07:16:48;;;;;;;;;5.00;2.33;;;;;;;;5062021;28;47380;-76
2021/07/04 07:19:14;;;;;;;;;4.00;2.00;;;;;;;;5065112;28;45439;-75
2021/07/04 07:21:40;;;;;;;;;1.75;1.75;;;;;;;;5055757;27;45678;-75
2021/07/04 07:24:05;;;;;;;;;4.75;3.00;;;;;;;;5051529;28;45513;-76
2021/07/04 07:26:30;;;;;;;;;1.25;1.25;;;;;;;;5053022;28;48394;-77
2021/07/04 07:28:55;;;;;;;;;2.00;2.00;;;;;;;;5062768;28;45400;-75
2021/07/04 07:31:21;;;;;;;;;3.00;2.00;;;;;;;;5065982;28;45444;-76
2021/07/04 07:33:46;;;;;;;;;4.00;2.25;;;;;;;;5044689;28;45531;-75
2021/07/04 07:36:11;;;;;;;;;4.00;3.00;;;;;;;;5048128;28;45424;-76
2021/07/04 07:38:37;;;;;;;;;2.00;2.00;;;;;;;;5052290;28;45415;-76
2021/07/04 07:41:02;;;;;;;;;2.00;1.50;;;;;;;;5063104;28;45386;-76
2021/07/04 07:43:27;;;;;;;;;3.00;2.00;;;;;;;;5062377;28;45418;-79
2021/07/04 07:45:52;;;;;;;;;2.00;2.00;;;;;;;;5054612;28;45739;-76
2021/07/04 07:48:17;;;;;;;;;2.00;2.00;;;;;;;;5051921;28;45749;-76
2021/07/04 07:50:43;;;;;;;;;3.00;2.33;;;;;;;;5049934;28;45395;-77
2021/07/04 07:53:08;;;;;;;;;3.33;2.00;;;;;;;;5056403;28;45536;-76
2021/07/04 07:55:33;;;;;;;;;2.00;1.00;;;;;;;;5064519;28;45613;-75
2021/07/04 07:57:59;;;;;;;;;2.00;2.00;;;;;;;;5052374;28;45685;-73
2021/07/04 08:00:24;;;;;;;;;3.00;1.75;;;;;;;;5054422;28;45802;-77
2021/07/04 08:02:49;;;;;;;;;1.00;1.00;;;;;;;;5059674;27;45402;-78
2021/07/04 08:05:14;;;;;;;;;2.33;2.33;;;;;;;;5060704;28;47957;-76
2021/07/04 08:07:40;;;;;;;;;2.67;1.67;;;;;;;;5060880;28;45380;-76
2021/07/04 08:10:06;;;;;;;;;2.50;1.00;;;;;;;;5065758;28;45401;-79
2021/07/04 08:12:31;;;;;;;;;3.50;2.00;;;;;;;;5051154;28;45462;-77
2021/07/04 08:14:57;;;;;;;;;3.50;2.00;;;;;;;;5052410;28;45426;-76
2021/07/04 08:17:22;;;;;;;;;1.50;1.50;;;;;;;;5063250;28;46116;-76
2021/07/04 08:19:47;;;;;;;;;1.33;1.33;;;;;;;;5056760;28;45426;-76
2021/07/04 08:22:12;;;;;;;;;2.00;2.00;;;;;;;;5059003;28;45414;-77
2021/07/04 08:24:37;;;;;;;;;3.00;2.00;;;;;;;;5057406;28;46590;-78
2021/07/04 08:27:03;;;;;;;;;3.00;3.00;;;;;;;;5057685;28;45333;-76
2021/07/04 08:29:28;;;;;;;;;2.00;2.00;;;;;;;;5052753;28;45269;-78
2021/07/04 08:31:53;;;;;;;;;4.00;2.00;;;;;;;;5060356;28;45497;-85
2021/07/04 08:34:18;;;;;;;;;3.25;3.25;;;;;;;;5064580;28;46428;-84
2021/07/04 08:36:44;;;;;;;;;2.67;2.67;;;;;;;;5050627;28;45410;-86
2021/07/04 08:39:10;;;;;;;;;2.00;2.00;;;;;;;;5053057;28;45382;-84
2021/07/04 08:41:35;;;;;;;;;2.25;1.75;;;;;;;;5052137;27;45422;-86
2021/07/04 08:44:04;;;;;;;;;5.00;2.00;;;;;;;;5050790;28;45446;-85
2021/07/04 08:46:29;;;;;;;;;2.00;2.00;;;;;;;;5063070;28;45584;-86
2021/07/04 08:48:55;;;;;;;;;4.33;3.00;;;;;;;;5054223;28;45485;-85
2021/07/04 08:51:20;;;;;;;;;2.00;2.00;;;;;;;;5054769;28;45429;-86
2021/07/04 08:53:46;;;;;;;;;0.00;0.00;;;;;;;;5059472;27;46461;-85
2021/07/04 08:56:11;;;;;;;;;0.75;0.75;;;;;;;;5062354;28;45578;-85
2021/07/04 08:58:36;;;;;;;;;1.00;1.00;;;;;;;;5054634;28;45394;-85
2021/07/04 09:01:16;;;;;;;;;0.50;0.00;;;;;;;;5063043;28;45501;-84
2021/07/04 09:03:43;;;;;;;;;0.25;0.25;;;;;;;;5053131;27;45568;-84
2021/07/04 09:06:09;;;;;;;;;0.00;0.00;;;;;;;;5056180;28;45789;-84
2021/07/04 09:08:36;;;;;;;;;0.00;0.00;;;;;;;;5050096;28;45571;-81
2021/07/04 09:11:17;;;;;;;;;0.00;0.00;;;;;;;;5050642;28;45613;-83
2021/07/04 09:13:44;;;;;;;;;0.00;0.00;;;;;;;;5040010;28;48553;-77
2021/07/04 09:16:17;;;;;;;;;0.00;0.00;;;;;;;;5052062;28;45602;-77
2021/07/04 09:18:43;;;;;;;;;3.00;0.00;;;;;;;;5079806;27;45529;-76
2021/07/04 09:21:16;;;;;;;;;2.00;0.00;;;;;;;;5050348;28;45668;-76
2021/07/04 09:23:41;;;;;;;;;0.00;0.00;;;;;;;;5058163;28;45527;-76
2021/07/04 09:26:06;;;;;;;;;0.00;0.00;;;;;;;;5048897;28;45660;-76
2021/07/04 09:28:32;;;;;;;;;1.00;1.00;;;;;;;;5050186;28;45556;-75
2021/07/04 09:30:58;;;;;;;;;0.00;0.00;;;;;;;;5045828;28;45474;-75
2021/07/04 09:33:27;;;;;;;;;0.75;0.75;;;;;;;;5049373;28;45536;-77
2021/07/04 09:35:57;;;;;;;;;2.00;0.50;;;;;;;;5050182;28;45596;-76
2021/07/04 09:38:23;;;;;;;;;0.75;0.75;;;;;;;;5049360;28;45498;-76
2021/07/04 09:40:49;;;;;;;;;3.25;0.00;;;;;;;;5048947;28;45539;-76
2021/07/04 09:43:15;;;;;;;;;0.50;0.50;;;;;;;;5054266;28;45353;-77
2021/07/04 09:45:47;;;;;;;;;0.25;0.25;;;;;;;;5049140;28;45606;-76
2021/07/04 09:48:13;;;;;;;;;0.75;0.75;;;;;;;;5049162;28;45368;-76
2021/07/04 09:50:40;;;;;;;;;0.00;0.00;;;;;;;;5046132;28;45433;-76
2021/07/04 09:53:05;;;;;;;;;1.25;1.25;;;;;;;;5044194;28;45571;-77
2021/07/04 09:55:30;;;;;;;;;1.00;1.00;;;;;;;;5032513;28;45520;-77
2021/07/04 09:58:00;;;;;;;;;0.00;0.00;;;;;;;;5051845;28;46837;-76
2021/07/04 10:00:27;;;;;;;;;1.00;1.00;;;;;;;;5035711;28;45503;-76
2021/07/04 10:03:04;;;;;;;;;0.25;0.25;;;;;;;;5049520;28;47387;-76
2021/07/04 10:05:30;;;;;;;;;1.00;1.00;;;;;;;;5048137;28;45420;-76
2021/07/04 10:07:55;;;;;;;;;0.00;0.00;;;;;;;;5049348;28;45592;-77
2021/07/04 10:10:21;;;;;;;;;0.00;0.00;;;;;;;;5051892;28;45628;-76
2021/07/04 10:12:46;;;;;;;;;2.00;0.00;;;;;;;;5037559;28;46134;-76
2021/07/04 10:15:12;;;;;;;;;0.00;0.00;;;;;;;;5038149;28;45548;-76
2021/07/04 10:17:37;;;;;;;;;0.75;0.75;;;;;;;;5044181;28;45575;-76
2021/07/04 10:20:03;;;;;;;;;0.50;0.00;;;;;;;;5050081;28;45467;-77
2021/07/04 10:22:33;;;;;;;;;2.50;1.00;;;;;;;;5063622;28;45537;-76
2021/07/04 10:24:59;;;;;;;;;1.00;0.25;;;;;;;;5057649;28;45496;-74
2021/07/04 10:27:24;;;;;;;;;3.75;1.00;;;;;;;;5051175;27;45555;-77
2021/07/04 10:29:50;;;;;;;;;0.75;0.75;;;;;;;;5050056;28;45454;-77
2021/07/04 10:32:15;;;;;;;;;0.00;0.00;;;;;;;;5059871;28;45442;-74
2021/07/04 10:34:41;;;;;;;;;1.00;1.00;;;;;;;;5061607;28;45606;-75
2021/07/04 10:37:07;;;;;;;;;1.00;1.00;;;;;;;;5054293;28;45367;-77
2021/07/04 10:39:33;;;;;;;;;0.00;0.00;;;;;;;;5054917;28;45396;-78
2021/07/04 10:42:00;;;;;;;;;0.00;0.00;;;;;;;;5055807;27;45335;-77
2021/07/04 10:44:41;;;;;;;;;0.00;0.00;;;;;;;;5052947;28;45753;-76
2021/07/04 10:47:08;;;;;;;;;0.00;0.00;;;;;;;;5062950;28;45622;-76
2021/07/04 10:49:38;;;;;;;;;0.25;0.25;;;;;;;;5065164;28;45349;-78
2021/07/04 10:52:06;;;;;;;;;1.75;1.00;;;;;;;;5056469;28;45508;-79
2021/07/04 10:54:38;;;;;;;;;1.00;1.00;;;;;;;;5059006;28;45631;-77
2021/07/04 10:57:04;;;;;;;;;1.25;1.25;;;;;;;;5058190;28;45338;-77
2021/07/04 10:59:29;;;;;;;;;1.00;0.00;;;;;;;;5062873;28;45549;-77
2021/07/04 11:01:55;;;;;;;;;2.00;0.00;;;;;;;;5063330;28;45536;-78
2021/07/04 11:04:27;;;;;;;;;3.00;1.00;;;;;;;;5064789;28;45355;-78
2021/07/04 11:06:57;;;;;;;;;1.00;1.00;;;;;;;;5077372;27;45414;-78
2021/07/04 11:09:22;;;;;;;;;0.25;0.25;;;;;;;;5052101;28;45521;-78
2021/07/04 11:11:47;;;;;;;;;1.00;1.00;;;;;;;;5052281;28;45405;-76
2021/07/04 11:14:13;;;;;;;;;0.33;0.33;;;;;;;;5052273;28;45761;-77
2021/07/04 11:16:58;;;;;;;;;0.67;0.00;;;;;;;;5061107;28;45558;-77
2021/07/04 11:19:23;;;;;;;;;0.00;0.00;;;;;;;;5062924;28;45466;-79
2021/07/04 11:21:50;;;;;;;;;0.67;0.67;;;;;;;;5060067;28;45455;-78
2021/07/04 11:24:16;;;;;;;;;1.25;0.00;;;;;;;;5059663;28;45604;-77
2021/07/04 11:26:41;;;;;;;;;0.00;0.00;;;;;;;;5078657;27;45565;-78
2021/07/04 11:29:11;;;;;;;;;0.50;0.50;;;;;;;;5062557;28;45386;-77
2021/07/04 11:31:39;;;;;;;;;0.00;0.00;;;;;;;;5064635;28;45469;-77
2021/07/04 11:34:05;;;;;;;;;0.00;0.00;;;;;;;;5054525;28;45677;-77
2021/07/04 11:36:31;;;;;;;;;0.00;0.00;;;;;;;;5055875;28;45816;-78
2021/07/04 11:39:07;;;;;;;;;0.00;0.00;;;;;;;;5052854;28;45476;-76
2021/07/04 11:41:37;;;;;;;;;0.00;0.00;;;;;;;;5044064;28;45579;-76
2021/07/04 11:44:13;;;;;;;;;0.50;0.00;;;;;;;;5062687;28;45426;-77
2021/07/04 11:46:41;;;;;;;;;0.00;0.00;;;;;;;;5057288;28;45301;-76
2021/07/04 11:49:07;;;;;;;;;0.50;0.00;;;;;;;;5054517;28;45562;-76
2021/07/04 11:51:48;;;;;;;;;0.00;0.00;;;;;;;;5056199;28;45394;-77
2021/07/04 11:54:18;;;;;;;;;0.00;0.00;;;;;;;;5055757;27;45554;-76
2021/07/04 11:56:46;;;;;;;;;0.00;0.00;;;;;;;;5049719;28;45632;-76
2021/07/04 11:59:21;;;;;;;;;1.75;0.75;;;;;;;;5047173;28;45546;-76
2021/07/04 12:01:47;;;;;;;;;0.00;0.00;;;;;;;;5044473;28;46223;-76
2021/07/04 12:04:13;;;;;;;;;0.50;0.50;;;;;;;;5069854;28;45332;-76
2021/07/04 12:07:10;;;;;;;;;0.00;0.00;;;;;;;;5052463;28;45493;-75
2021/07/04 12:09:39;;;;;;;;;0.50;0.50;;;;;;;;4971116;28;45836;-75
2021/07/04 12:12:12;;;;;;;;;0.25;0.25;;;;;;;;4988138;28;46048;-76
2021/07/04 12:14:38;;;;;;;;;1.25;0.50;;;;;;;;4985017;28;45752;-75
2021/07/04 12:17:15;;;;;;;;;2.00;0.50;;;;;;;;4988128;28;45744;-75
2021/07/04 12:19:42;;;;;;;;;0.00;0.00;;;;;;;;4988897;28;45616;-75
2021/07/04 12:22:10;;;;;;;;;0.25;0.00;;;;;;;;4974543;28;47959;-75
2021/07/04 12:24:35;;;;;;;;;0.00;0.00;;;;;;;;4988452;28;45443;-75
2021/07/04 12:27:00;;;;;;;;;0.00;0.00;;;;;;;;4974739;28;45429;-76
2021/07/04 12:29:25;;;;;;;;;0.00;0.00;;;;;;;;4974128;28;45627;-76
2021/07/04 12:32:04;;;;;;;;;1.50;0.00;;;;;;;;4973369;28;46096;-75
2021/07/04 12:34:30;;;;;;;;;0.00;0.00;;;;;;;;4973876;28;45872;-75
2021/07/04 12:36:55;;;;;;;;;0.00;0.00;;;;;;;;4974781;28;45498;-75
2021/07/04 12:39:27;;;;;;;;;0.00;0.00;;;;;;;;4987917;28;45531;-76
2021/07/04 12:41:53;;;;;;;;;0.75;0.00;;;;;;;;4980561;28;45548;-74
2021/07/04 12:44:18;;;;;;;;;0.00;0.00;;;;;;;;5009877;28;45875;-74
2021/07/04 12:46:43;;;;;;;;;0.00;0.00;;;;;;;;5051504;28;45342;-74
2021/07/04 12:49:12;;;;;;;;;0.00;0.00;;;;;;;;5062519;28;45609;-79
2021/07/04 12:51:38;;;;;;;;;1.00;0.50;;;;;;;;5056116;28;48916;-76
2021/07/04 12:54:15;;;;;;;;;1.00;1.00;;;;;;;;5056303;28;45486;-76
2021/07/04 12:56:43;;;;;;;;;0.00;0.00;;;;;;;;5050581;28;45545;-74
2021/07/04 12:59:08;;;;;;;;;0.50;0.50;;;;;;;;5040911;28;45453;-76
2021/07/04 13:01:38;;;;;;;;;1.00;1.00;;;;;;;;5047669;28;47284;-76
2021/07/04 13:04:03;;;;;;;;;0.00;0.00;;;;;;;;5048684;28;45621;-75
2021/07/04 13:06:47;;;;;;;;;0.33;0.33;;;;;;;;5051104;28;45395;-76
2021/07/04 13:09:15;;;;;;;;;1.00;1.00;;;;;;;;5047276;28;45520;-75
2021/07/04 13:11:41;;;;;;;;;1.00;0.00;;;;;;;;5050403;28;46183;-76
2021/07/04 13:14:08;;;;;;;;;0.00;0.00;;;;;;;;5050245;28;45738;-76
2021/07/04 13:16:34;;;;;;;;;0.75;0.00;;;;;;;;5062766;28;45571;-76
2021/07/04 13:19:37;;;;;;;;;0.00;0.00;;;;;;;;5058507;28;45383;-76
2021/07/04 13:22:11;;;;;;;;;0.00;0.00;;;;;;;;4969164;28;48055;-76
2021/07/04 13:24:42;;;;;;;;;0.25;0.00;;;;;;;;4968865;28;45681;-76
2021/07/04 13:27:15;;;;;;;;;0.00;0.00;;;;;;;;4968381;28;45600;-74
2021/07/04 13:29:42;;;;;;;;;0.00;0.00;;;;;;;;4968816;28;45639;-74
2021/07/04 13:32:07;;;;;;;;;0.00;0.00;;;;;;;;4968708;28;45451;-83
2021/07/04 13:34:32;;;;;;;;;1.00;0.00;;;;;;;;4969979;28;45461;-82
2021/07/04 13:36:58;;;;;;;;;0.00;0.00;;;;;;;;4969757;28;45606;-81
2021/07/04 13:39:23;;;;;;;;;0.00;0.00;;;;;;;;4946901;28;45539;-82
2021/07/04 13:41:49;;;;;;;;;0.00;0.00;;;;;;;;4968358;28;48170;-82
2021/07/04 13:44:14;;;;;;;;;0.00;0.00;;;;;;;;4968824;28;45774;-81
2021/07/04 13:46:39;;;;;;;;;0.00;0.00;;;;;;;;4953885;28;45547;-82
2021/07/04 13:49:05;;;;;;;;;0.00;0.00;;;;;;;;4955808;28;45485;-81
2021/07/04 13:51:30;;;;;;;;;0.00;0.00;;;;;;;;4953782;28;48489;-80
2021/07/04 13:53:56;;;;;;;;;4.00;0.00;;;;;;;;5041290;28;45367;-81
2021/07/04 13:56:21;;;;;;;;;0.50;0.50;;;;;;;;5050963;28;45770;-81
2021/07/04 13:58:46;;;;;;;;;0.00;0.00;;;;;;;;5050969;28;45415;-83
2021/07/04 14:01:11;;;;;;;;;0.00;0.00;;;;;;;;5053010;28;45547;-83
2021/07/04 14:03:36;;;;;;;;;0.00;0.00;;;;;;;;5049941;28;45656;-82
2021/07/04 14:06:02;;;;;;;;;0.33;0.33;;;;;;;;5048872;28;45469;-81
2021/07/04 14:08:27;;;;;;;;;0.00;0.00;;;;;;;;5049235;28;45454;-81
2021/07/04 14:10:52;;;;;;;;;0.00;0.00;;;;;;;;5050415;28;46268;-81
2021/07/04 14:13:19;;;;;;;;;0.00;0.00;;;;;;;;5052458;28;45394;-80
2021/07/04 14:15:45;;;;;;;;;0.00;0.00;;;;;;;;5055678;28;45457;-82
2021/07/04 14:18:10;;;;;;;;;0.00;0.00;;;;;;;;5058211;27;45553;-82
2021/07/04 14:20:36;;;;;;;;;1.00;0.00;;;;;;;;5054936;28;45445;-83
2021/07/04 14:23:01;;;;;;;;;0.75;0.75;;;;;;;;5053984;28;45724;-83
2021/07/04 14:25:27;;;;;;;;;0.00;0.00;;;;;;;;5054439;28;45621;-83
2021/07/04 14:27:54;;;;;;;;;0.00;0.00;;;;;;;;5055976;28;45603;-76
2021/07/04 14:30:20;;;;;;;;;1.00;0.00;;;;;;;;5032766;28;46207;-76
2021/07/04 14:32:47;;;;;;;;;0.00;0.00;;;;;;;;5051864;28;45658;-76
2021/07/04 14:35:13;;;;;;;;;0.00;0.00;;;;;;;;5054709;28;45585;-76
2021/07/04 14:37:38;;;;;;;;;1.00;0.00;;;;;;;;5053521;28;45586;-76
2021/07/04 14:40:05;;;;;;;;;1.00;1.00;;;;;;;;5055369;28;45841;-77